Queensville, Indiana
Current Conditions -  °F | °C
As of 11:33 PM on Sunday 25 Jan 2015 (Local Time) from KIMS Reporting Station
Overcast Overcast  
Wind Chill: 26°   Ceiling: 500
Heat Index: 34°   Visibility: 7mi
Dew Point: 32°   Wind: 9mph
Humidity: 93%   Direction: 340°NNW
Pressure: 29.72"   Gusts: NA
Location:  38.9859°N, 85.6189°W
Report Text: KIMS 260433Z AUTO 34008KT 7SM OVC005 01/00 A2972 RMK AO1
Loading
Personal Weather Stations






























Interactive Weather Map New forecast layout! Learn more

10-Day Weather Forecast

Advertisements
Track Severe Weather on mobile